Time;durP1;ratioP1;P1;durP2;ratioP2;P2;SDS_P1;SDS_P2;PMS_P1;PMS_P2;Temp;Humidity;BMP_temperature;BMP_pressure;BME280_temperature;BME280_humidity;BME280_pressure;Samples;Min_cycle;Max_cycle;Signal;HPM_P1;HPM_P2
2021/12/03 00:02:06;;;;;;;13.98;8.25;;;;;;;;;;5094522;28;20024;-79
2021/12/03 00:04:32;;;;;;;12.60;7.57;;;;;;;;;;5091538;28;20406;-79
2021/12/03 00:06:58;;;;;;;13.70;7.70;;;;;;;;;;5073695;28;20416;-79
2021/12/03 00:09:24;;;;;;;13.15;7.50;;;;;;;;;;5072621;28;20036;-79
2021/12/03 00:11:50;;;;;;;14.07;8.27;;;;;;;;;;5072563;28;20511;-79
2021/12/03 00:14:16;;;;;;;12.20;7.50;;;;;;;;;;5075081;28;20051;-79
2021/12/03 00:16:42;;;;;;;13.05;7.55;;;;;;;;;;5113406;28;20388;-79
2021/12/03 00:19:08;;;;;;;12.05;7.18;;;;;;;;;;5113870;28;20107;-79
2021/12/03 00:21:37;;;;;;;10.85;7.07;;;;;;;;;;5114380;28;20020;-79
2021/12/03 00:24:03;;;;;;;11.15;6.57;;;;;;;;;;5100533;28;20032;-79
2021/12/03 00:26:29;;;;;;;10.73;6.20;;;;;;;;;;5083263;28;20020;-80
2021/12/03 00:28:55;;;;;;;10.98;6.35;;;;;;;;;;5074461;28;20040;-79
2021/12/03 00:31:21;;;;;;;9.55;6.40;;;;;;;;;;5080389;28;20055;-79
2021/12/03 00:33:47;;;;;;;8.48;5.38;;;;;;;;;;5093839;28;20020;-78
2021/12/03 00:36:13;;;;;;;10.38;5.20;;;;;;;;;;5078348;28;20395;-79
2021/12/03 00:38:42;;;;;;;8.95;5.57;;;;;;;;;;5088585;28;20390;-78
2021/12/03 00:41:11;;;;;;;10.50;5.55;;;;;;;;;;5079578;28;20051;-79
2021/12/03 00:43:42;;;;;;;10.15;5.93;;;;;;;;;;5078578;28;20024;-79
2021/12/03 00:46:10;;;;;;;11.55;5.15;;;;;;;;;;5090401;28;20104;-79
2021/12/03 00:48:37;;;;;;;9.23;4.75;;;;;;;;;;5072916;28;20481;-79
2021/12/03 00:51:04;;;;;;;7.47;4.38;;;;;;;;;;5089105;28;20035;-79
2021/12/03 00:53:30;;;;;;;7.60;4.40;;;;;;;;;;5092712;28;20020;-79
2021/12/03 00:55:56;;;;;;;8.45;4.95;;;;;;;;;;5080576;28;20055;-80
2021/12/03 00:58:22;;;;;;;8.20;4.30;;;;;;;;;;5093068;28;20043;-78
2021/12/03 01:00:49;;;;;;;10.32;4.78;;;;;;;;;;5080157;28;20111;-79
2021/12/03 01:03:15;;;;;;;9.35;4.28;;;;;;;;;;5073767;28;20081;-79
2021/12/03 01:05:41;;;;;;;8.60;4.80;;;;;;;;;;5073690;28;20021;-78
2021/12/03 01:08:07;;;;;;;9.88;4.65;;;;;;;;;;5090196;28;20028;-79
2021/12/03 01:10:34;;;;;;;10.88;4.55;;;;;;;;;;5088919;28;20051;-78
2021/12/03 01:13:00;;;;;;;8.73;4.32;;;;;;;;;;5093416;28;20024;-79
2021/12/03 01:15:29;;;;;;;7.65;4.03;;;;;;;;;;5091983;28;20017;-79
2021/12/03 01:17:55;;;;;;;7.72;3.45;;;;;;;;;;5088436;28;20473;-79
2021/12/03 01:20:21;;;;;;;11.73;4.80;;;;;;;;;;5089550;28;20099;-78
2021/12/03 01:22:49;;;;;;;7.65;4.15;;;;;;;;;;5091943;28;20028;-79
2021/12/03 01:25:16;;;;;;;7.55;3.75;;;;;;;;;;5076376;28;20020;-79
2021/12/03 01:27:42;;;;;;;8.48;3.78;;;;;;;;;;5087818;28;20035;-79
2021/12/03 01:30:10;;;;;;;7.35;3.78;;;;;;;;;;5086524;28;20059;-78
2021/12/03 01:32:36;;;;;;;7.93;4.05;;;;;;;;;;5073316;28;20050;-78
2021/12/03 01:35:03;;;;;;;9.73;3.92;;;;;;;;;;5072756;28;20031;-79
2021/12/03 01:37:29;;;;;;;7.82;3.85;;;;;;;;;;5071968;28;20028;-79
2021/12/03 01:39:55;;;;;;;8.50;4.70;;;;;;;;;;5089825;28;20032;-80
2021/12/03 01:42:21;;;;;;;9.18;3.83;;;;;;;;;;5076990;28;20055;-79
2021/12/03 01:44:47;;;;;;;7.70;3.97;;;;;;;;;;5090786;28;20024;-79
2021/12/03 01:47:13;;;;;;;8.30;4.35;;;;;;;;;;5094332;28;20032;-78
2021/12/03 01:49:39;;;;;;;7.75;3.65;;;;;;;;;;5093136;28;20028;-78
2021/12/03 01:52:06;;;;;;;8.48;3.47;;;;;;;;;;5078187;28;20511;-79
2021/12/03 01:54:32;;;;;;;5.47;3.00;;;;;;;;;;5094469;28;20457;-79
2021/12/03 01:56:58;;;;;;;7.93;3.42;;;;;;;;;;5089308;28;20369;-80
2021/12/03 01:59:24;;;;;;;7.60;3.20;;;;;;;;;;5075909;28;20108;-79
2021/12/03 02:01:50;;;;;;;6.93;3.10;;;;;;;;;;5087872;28;20013;-78
2021/12/03 02:04:16;;;;;;;6.00;3.30;;;;;;;;;;5077007;28;20021;-79
2021/12/03 02:06:42;;;;;;;9.27;3.08;;;;;;;;;;5079320;28;20047;-80
2021/12/03 02:09:11;;;;;;;6.38;4.20;;;;;;;;;;5097341;28;20024;-80
2021/12/03 02:11:37;;;;;;;6.13;3.33;;;;;;;;;;5092848;28;20024;-79
2021/12/03 02:14:04;;;;;;;7.45;3.72;;;;;;;;;;5095795;28;20032;-79
2021/12/03 02:16:30;;;;;;;5.85;2.97;;;;;;;;;;5095211;28;20058;-79
2021/12/03 02:18:56;;;;;;;6.35;3.28;;;;;;;;;;5074854;28;20296;-79
2021/12/03 02:21:22;;;;;;;8.20;3.60;;;;;;;;;;5085601;28;20394;-78
2021/12/03 02:23:48;;;;;;;6.75;3.33;;;;;;;;;;5074864;28;20025;-79
2021/12/03 02:26:14;;;;;;;7.72;3.88;;;;;;;;;;5085711;28;20050;-79
2021/12/03 02:28:42;;;;;;;7.47;3.63;;;;;;;;;;5088625;28;20081;-79
2021/12/03 02:31:08;;;;;;;6.80;3.25;;;;;;;;;;5082112;28;20036;-79
2021/12/03 02:33:34;;;;;;;6.65;3.60;;;;;;;;;;5096145;28;20108;-79
2021/12/03 02:36:00;;;;;;;5.93;3.33;;;;;;;;;;5088341;28;20028;-79
2021/12/03 02:38:27;;;;;;;8.32;3.58;;;;;;;;;;5091993;28;20094;-79
2021/12/03 02:40:53;;;;;;;6.10;3.42;;;;;;;;;;5082768;28;20510;-78
2021/12/03 02:43:20;;;;;;;6.88;3.28;;;;;;;;;;5075693;28;20111;-79
2021/12/03 02:45:46;;;;;;;7.68;3.58;;;;;;;;;;5074109;28;20031;-78
2021/12/03 02:48:13;;;;;;;6.72;3.35;;;;;;;;;;5090455;28;20482;-79
2021/12/03 02:50:39;;;;;;;7.60;3.47;;;;;;;;;;5083608;28;20604;-79
2021/12/03 02:53:05;;;;;;;6.32;3.38;;;;;;;;;;5075806;28;20070;-79
2021/12/03 02:55:31;;;;;;;7.32;3.75;;;;;;;;;;5075504;28;20021;-79
2021/12/03 02:57:57;;;;;;;7.72;3.63;;;;;;;;;;5078718;28;20059;-79
2021/12/03 03:00:25;;;;;;;7.28;3.70;;;;;;;;;;5075449;28;20115;-79
2021/12/03 03:02:51;;;;;;;7.75;3.97;;;;;;;;;;5088618;28;20047;-79
2021/12/03 03:05:17;;;;;;;6.90;2.80;;;;;;;;;;5083051;28;20025;-79
2021/12/03 03:07:44;;;;;;;10.70;3.47;;;;;;;;;;5083748;28;20028;-79
2021/12/03 03:10:14;;;;;;;7.65;3.40;;;;;;;;;;5093972;28;20035;-79
2021/12/03 03:12:40;;;;;;;8.60;3.53;;;;;;;;;;5093187;28;20026;-79
2021/12/03 03:15:07;;;;;;;8.85;4.47;;;;;;;;;;5081705;28;20036;-79
2021/12/03 03:17:33;;;;;;;7.25;3.53;;;;;;;;;;5073276;28;20024;-79
2021/12/03 03:20:00;;;;;;;8.23;3.55;;;;;;;;;;5088325;28;20516;-79
2021/12/03 03:22:26;;;;;;;7.22;3.53;;;;;;;;;;5093613;28;20062;-79
2021/12/03 03:24:53;;;;;;;8.50;3.10;;;;;;;;;;5075610;28;20024;-79
2021/12/03 03:27:20;;;;;;;6.90;3.38;;;;;;;;;;5073502;28;20052;-78
2021/12/03 03:29:48;;;;;;;7.88;3.35;;;;;;;;;;5074229;28;20031;-79
2021/12/03 03:32:14;;;;;;;7.57;3.03;;;;;;;;;;5074556;28;20111;-78
2021/12/03 03:34:40;;;;;;;7.30;2.83;;;;;;;;;;5090533;28;20028;-79
2021/12/03 03:37:06;;;;;;;6.53;2.70;;;;;;;;;;5081358;28;20029;-78
2021/12/03 03:39:33;;;;;;;6.75;3.03;;;;;;;;;;5074511;28;20076;-78
2021/12/03 03:41:59;;;;;;;7.43;2.63;;;;;;;;;;5073615;28;20028;-78
2021/12/03 03:44:25;;;;;;;5.18;2.75;;;;;;;;;;5074434;28;20374;-79
2021/12/03 03:46:51;;;;;;;5.05;2.70;;;;;;;;;;5072345;28;20422;-79
2021/12/03 03:49:18;;;;;;;6.85;3.03;;;;;;;;;;5092296;28;20111;-78
2021/12/03 03:51:44;;;;;;;6.03;2.90;;;;;;;;;;5080574;28;20036;-78
2021/12/03 03:54:10;;;;;;;6.40;2.72;;;;;;;;;;5072796;28;20437;-79
2021/12/03 03:56:36;;;;;;;6.00;2.70;;;;;;;;;;5073421;28;20041;-78
2021/12/03 03:59:03;;;;;;;5.05;2.38;;;;;;;;;;5094444;28;20062;-79
2021/12/03 04:01:29;;;;;;;7.35;2.78;;;;;;;;;;5090179;28;20024;-79
2021/12/03 04:03:55;;;;;;;6.20;2.83;;;;;;;;;;5085555;28;20521;-79
2021/12/03 04:06:21;;;;;;;7.55;3.03;;;;;;;;;;5072030;28;20024;-78
2021/12/03 04:08:48;;;;;;;6.95;3.33;;;;;;;;;;5072789;28;20052;-79
2021/12/03 04:11:15;;;;;;;6.50;2.72;;;;;;;;;;5080271;28;20047;-79
2021/12/03 04:13:42;;;;;;;6.35;2.45;;;;;;;;;;5092640;28;20016;-79
2021/12/03 04:16:08;;;;;;;6.10;2.85;;;;;;;;;;5080433;28;20021;-79
2021/12/03 04:18:34;;;;;;;6.63;2.60;;;;;;;;;;5072105;28;20020;-79
2021/12/03 04:21:00;;;;;;;4.68;2.10;;;;;;;;;;5077029;28;20020;-79
2021/12/03 04:23:27;;;;;;;5.97;2.40;;;;;;;;;;5092249;28;20026;-79
2021/12/03 04:25:53;;;;;;;5.20;2.40;;;;;;;;;;5077046;28;20127;-80
2021/12/03 04:28:19;;;;;;;8.18;2.30;;;;;;;;;;5074857;28;20028;-79
2021/12/03 04:30:46;;;;;;;4.75;2.10;;;;;;;;;;5075572;28;20030;-78
2021/12/03 04:33:12;;;;;;;6.25;2.17;;;;;;;;;;5092463;28;20028;-80
2021/12/03 04:35:39;;;;;;;5.88;2.40;;;;;;;;;;5094768;28;20327;-80
2021/12/03 04:38:06;;;;;;;5.13;2.20;;;;;;;;;;5080039;28;20383;-79
2021/12/03 04:40:33;;;;;;;6.97;2.60;;;;;;;;;;5075260;28;20503;-79
2021/12/03 04:42:59;;;;;;;6.55;2.38;;;;;;;;;;5073657;28;20031;-79
2021/12/03 04:45:26;;;;;;;5.68;2.40;;;;;;;;;;5091714;28;20028;-79
2021/12/03 04:47:53;;;;;;;5.90;2.53;;;;;;;;;;5084413;28;20043;-79
2021/12/03 04:50:20;;;;;;;6.82;2.80;;;;;;;;;;5074596;28;20032;-79
2021/12/03 04:52:46;;;;;;;5.60;2.30;;;;;;;;;;5085199;28;20024;-79
2021/12/03 04:55:12;;;;;;;6.22;2.70;;;;;;;;;;5074605;28;20494;-79
2021/12/03 04:57:39;;;;;;;7.53;2.80;;;;;;;;;;5074181;28;20044;-79
2021/12/03 05:00:10;;;;;;;5.45;2.55;;;;;;;;;;5074143;28;20107;-79
2021/12/03 05:02:36;;;;;;;5.22;2.55;;;;;;;;;;5094980;28;20030;-79
2021/12/03 05:05:05;;;;;;;7.22;2.60;;;;;;;;;;5084913;28;20044;-79
2021/12/03 05:10:03;;;;;;;6.47;2.22;;;;;;;;;;5091700;28;20094;-79
2021/12/03 05:12:29;;;;;;;8.82;2.80;;;;;;;;;;5091752;28;20038;-79
2021/12/03 05:14:55;;;;;;;5.88;2.30;;;;;;;;;;5096165;28;20171;-79
2021/12/03 05:17:22;;;;;;;6.28;3.08;;;;;;;;;;5087268;28;20089;-79
2021/12/03 05:19:48;;;;;;;6.20;2.60;;;;;;;;;;5085560;28;20036;-79
2021/12/03 05:22:14;;;;;;;7.90;2.75;;;;;;;;;;5086316;28;20028;-78
2021/12/03 05:24:45;;;;;;;6.28;2.80;;;;;;;;;;5086689;28;20494;-80
2021/12/03 05:27:11;;;;;;;5.82;2.78;;;;;;;;;;5079990;28;20032;-79
2021/12/03 05:29:37;;;;;;;5.72;2.40;;;;;;;;;;5087605;28;20501;-80
2021/12/03 05:32:03;;;;;;;6.97;3.00;;;;;;;;;;5098813;28;20103;-80
2021/12/03 05:34:30;;;;;;;8.35;3.72;;;;;;;;;;5098320;28;20191;-79
2021/12/03 05:36:56;;;;;;;9.68;4.15;;;;;;;;;;5096716;28;20077;-80
2021/12/03 05:39:22;;;;;;;11.70;5.22;;;;;;;;;;5095939;28;20024;-80
2021/12/03 05:41:48;;;;;;;8.32;3.60;;;;;;;;;;5088294;28;20038;-79
2021/12/03 05:44:14;;;;;;;8.43;3.95;;;;;;;;;;5091394;28;20020;-79
2021/12/03 05:46:40;;;;;;;10.05;5.10;;;;;;;;;;5087743;28;20496;-79
2021/12/03 05:49:06;;;;;;;6.65;3.25;;;;;;;;;;5085131;28;20040;-79
2021/12/03 05:51:33;;;;;;;9.32;3.60;;;;;;;;;;5089556;28;20032;-80
2021/12/03 05:53:59;;;;;;;12.18;4.03;;;;;;;;;;5093722;28;20054;-79
2021/12/03 05:56:25;;;;;;;11.98;4.07;;;;;;;;;;5086760;28;20027;-79
2021/12/03 05:58:51;;;;;;;10.77;4.32;;;;;;;;;;5085528;28;20036;-79
2021/12/03 06:01:18;;;;;;;12.07;4.55;;;;;;;;;;5098157;28;20103;-79
2021/12/03 06:03:46;;;;;;;11.00;4.97;;;;;;;;;;5088527;28;20058;-78
2021/12/03 06:06:12;;;;;;;8.60;3.75;;;;;;;;;;5086899;28;20028;-79
2021/12/03 06:08:38;;;;;;;10.93;4.60;;;;;;;;;;5082395;28;20071;-79
2021/12/03 06:11:04;;;;;;;8.07;3.60;;;;;;;;;;5086606;28;20485;-79
2021/12/03 06:13:30;;;;;;;8.68;3.60;;;;;;;;;;5093166;28;20019;-79
2021/12/03 06:15:56;;;;;;;9.18;4.22;;;;;;;;;;5091204;28;20028;-79
2021/12/03 06:21:26;;;;;;;11.55;4.15;;;;;;;;;;5089726;28;20127;-80
2021/12/03 06:23:52;;;;;;;14.38;4.45;;;;;;;;;;5087726;28;20107;-79
2021/12/03 06:26:18;;;;;;;6.00;3.20;;;;;;;;;;5109031;28;20027;-80
2021/12/03 06:28:44;;;;;;;7.10;3.83;;;;;;;;;;5096345;28;20445;-80
2021/12/03 06:31:10;;;;;;;7.65;3.80;;;;;;;;;;5094357;28;20032;-79
2021/12/03 06:33:36;;;;;;;7.15;3.47;;;;;;;;;;5086598;28;20024;-79
2021/12/03 06:36:03;;;;;;;7.47;4.10;;;;;;;;;;5084674;28;20036;-80
2021/12/03 06:38:29;;;;;;;8.05;4.20;;;;;;;;;;5084299;28;20025;-79
2021/12/03 06:40:55;;;;;;;8.60;3.55;;;;;;;;;;5087192;28;20031;-80
2021/12/03 06:43:21;;;;;;;8.27;3.95;;;;;;;;;;5089501;28;20024;-80
2021/12/03 06:45:47;;;;;;;7.85;3.03;;;;;;;;;;5075728;28;20025;-79
2021/12/03 06:48:14;;;;;;;7.07;3.20;;;;;;;;;;5076006;28;20123;-79
2021/12/03 06:50:40;;;;;;;9.07;3.28;;;;;;;;;;5094394;28;20036;-80
2021/12/03 06:53:09;;;;;;;9.07;3.88;;;;;;;;;;5079258;28;20025;-80
2021/12/03 06:58:11;;;;;;;10.75;4.05;;;;;;;;;;5096573;28;20071;-79
2021/12/03 07:00:37;;;;;;;8.63;3.75;;;;;;;;;;5086585;28;20040;-79
2021/12/03 07:03:03;;;;;;;8.75;4.85;;;;;;;;;;5081801;28;20031;-80
2021/12/03 07:05:29;;;;;;;9.55;4.25;;;;;;;;;;5087625;28;20028;-79
2021/12/03 07:07:55;;;;;;;9.70;4.95;;;;;;;;;;5094694;28;20073;-79
2021/12/03 07:10:21;;;;;;;11.10;4.85;;;;;;;;;;5083633;28;20111;-79
2021/12/03 07:12:48;;;;;;;9.77;4.93;;;;;;;;;;5077150;28;20401;-80
2021/12/03 07:15:15;;;;;;;9.70;4.70;;;;;;;;;;5091298;28;20028;-79
2021/12/03 07:17:41;;;;;;;8.40;4.80;;;;;;;;;;5091808;28;20024;-79
2021/12/03 07:20:08;;;;;;;9.10;4.20;;;;;;;;;;5087574;28;20494;-79
2021/12/03 07:22:35;;;;;;;8.90;4.47;;;;;;;;;;5074756;28;20028;-78
2021/12/03 07:25:01;;;;;;;8.15;4.13;;;;;;;;;;5091597;28;20470;-79
2021/12/03 07:27:27;;;;;;;10.45;4.82;;;;;;;;;;5095937;28;20064;-79
2021/12/03 07:29:53;;;;;;;7.70;3.80;;;;;;;;;;5095477;28;20313;-80
2021/12/03 07:32:20;;;;;;;9.35;3.95;;;;;;;;;;5088140;28;20034;-79
2021/12/03 07:34:46;;;;;;;8.85;4.15;;;;;;;;;;5078586;28;20092;-79
2021/12/03 07:37:13;;;;;;;8.18;4.15;;;;;;;;;;5075795;28;20086;-79
2021/12/03 07:39:39;;;;;;;7.03;4.05;;;;;;;;;;5077004;28;20024;-79
2021/12/03 07:42:05;;;;;;;10.60;4.82;;;;;;;;;;5075723;28;20027;-79
2021/12/03 07:44:31;;;;;;;7.68;4.05;;;;;;;;;;5082637;28;20107;-79
2021/12/03 07:46:57;;;;;;;10.18;4.55;;;;;;;;;;5078717;28;20505;-79
2021/12/03 07:49:24;;;;;;;7.88;4.10;;;;;;;;;;5074930;28;20032;-78
2021/12/03 07:51:51;;;;;;;9.38;4.45;;;;;;;;;;5088477;28;20465;-79
2021/12/03 07:54:17;;;;;;;7.72;4.53;;;;;;;;;;5092829;28;20039;-79
2021/12/03 07:56:44;;;;;;;10.60;5.40;;;;;;;;;;5079522;28;20043;-78
2021/12/03 07:59:10;;;;;;;8.52;4.03;;;;;;;;;;5082552;28;20039;-79
2021/12/03 08:01:36;;;;;;;8.45;4.43;;;;;;;;;;5085223;28;20035;-79
2021/12/03 08:04:02;;;;;;;10.55;4.60;;;;;;;;;;5089766;28;20055;-80
2021/12/03 08:06:28;;;;;;;9.88;4.32;;;;;;;;;;5080324;28;20387;-79
2021/12/03 08:08:54;;;;;;;10.18;4.70;;;;;;;;;;5088421;28;20024;-79
2021/12/03 08:11:20;;;;;;;8.68;4.80;;;;;;;;;;5090465;28;20499;-80
2021/12/03 08:13:46;;;;;;;7.95;4.18;;;;;;;;;;5073600;28;20534;-80
2021/12/03 08:16:12;;;;;;;8.10;3.85;;;;;;;;;;5088082;28;20059;-79
2021/12/03 08:18:38;;;;;;;7.47;4.38;;;;;;;;;;5094228;28;20023;-79
2021/12/03 08:21:05;;;;;;;7.32;4.30;;;;;;;;;;5094856;28;20525;-80
2021/12/03 08:23:31;;;;;;;7.20;4.03;;;;;;;;;;5083195;28;20070;-79
2021/12/03 08:25:57;;;;;;;10.75;4.68;;;;;;;;;;5071879;28;20020;-80
2021/12/03 08:28:23;;;;;;;7.88;4.57;;;;;;;;;;5073167;28;20024;-79
2021/12/03 08:30:49;;;;;;;10.93;4.78;;;;;;;;;;5093018;28;20019;-78
2021/12/03 08:33:15;;;;;;;7.03;4.05;;;;;;;;;;5082345;28;20020;-79
2021/12/03 08:35:41;;;;;;;7.28;4.13;;;;;;;;;;5086078;28;20024;-79
2021/12/03 08:38:07;;;;;;;9.25;4.30;;;;;;;;;;5095146;28;20095;-80
2021/12/03 08:40:34;;;;;;;8.57;4.55;;;;;;;;;;5092776;28;20031;-79
2021/12/03 08:43:00;;;;;;;8.93;4.25;;;;;;;;;;5084109;28;20031;-81
2021/12/03 08:45:26;;;;;;;9.02;4.63;;;;;;;;;;5082601;28;20364;-79
2021/12/03 08:47:58;;;;;;;7.78;3.83;;;;;;;;;;5074184;28;20034;-80
2021/12/03 08:50:32;;;;;;;7.97;4.00;;;;;;;;;;5075024;28;20028;-80
2021/12/03 08:55:44;;;;;;;7.63;4.13;;;;;;;;;;5091199;28;20104;-80
2021/12/03 08:58:13;;;;;;;7.97;3.95;;;;;;;;;;5093306;28;20056;-80
2021/12/03 09:00:39;;;;;;;6.57;3.55;;;;;;;;;;5093329;28;20458;-79
2021/12/03 09:03:06;;;;;;;7.90;3.85;;;;;;;;;;5094475;28;20019;-80
2021/12/03 09:05:34;;;;;;;7.35;3.85;;;;;;;;;;5087578;28;20017;-79
2021/12/03 09:08:00;;;;;;;9.80;4.10;;;;;;;;;;5072626;28;20028;-79
2021/12/03 09:10:26;;;;;;;6.85;3.70;;;;;;;;;;5074042;28;20086;-80
2021/12/03 09:12:52;;;;;;;8.02;3.53;;;;;;;;;;5074439;28;20031;-80
2021/12/03 09:15:25;;;;;;;8.63;4.45;;;;;;;;;;5073833;28;20059;-80
2021/12/03 09:22:52;;;;;;;7.30;3.75;;;;;;;;;;5076873;28;20017;-80
2021/12/03 09:25:23;;;;;;;7.28;3.90;;;;;;;;;;5091645;28;20020;-79
2021/12/03 09:27:51;;;;;;;7.30;3.17;;;;;;;;;;5092738;28;20020;-78
2021/12/03 09:30:17;;;;;;;6.38;4.03;;;;;;;;;;5089727;28;20099;-79
2021/12/03 09:32:50;;;;;;;8.70;4.10;;;;;;;;;;5091838;28;20119;-78
2021/12/03 09:35:16;;;;;;;7.55;3.92;;;;;;;;;;5092769;28;20053;-78
2021/12/03 09:37:42;;;;;;;7.28;3.67;;;;;;;;;;5092249;28;20024;-78
2021/12/03 09:40:09;;;;;;;5.85;3.47;;;;;;;;;;5090514;28;20020;-78
2021/12/03 09:42:38;;;;;;;10.15;4.53;;;;;;;;;;5086315;28;20096;-77
2021/12/03 09:45:05;;;;;;;6.60;3.38;;;;;;;;;;5093224;28;20017;-78
2021/12/03 09:47:31;;;;;;;7.03;3.90;;;;;;;;;;5091872;28;20438;-79
2021/12/03 09:49:59;;;;;;;6.95;3.90;;;;;;;;;;5093311;28;20083;-79
2021/12/03 09:52:34;;;;;;;8.45;4.45;;;;;;;;;;5085840;28;20024;-79
2021/12/03 09:55:02;;;;;;;8.98;4.13;;;;;;;;;;5091480;28;20039;-79
2021/12/03 09:57:41;;;;;;;5.18;2.90;;;;;;;;;;5093223;28;20448;-79
2021/12/03 10:03:29;;;;;;;6.28;3.13;;;;;;;;;;5087657;28;20028;-79
2021/12/03 10:12:26;;;;;;;5.35;2.88;;;;;;;;;;5079555;28;20067;-79
2021/12/03 10:17:25;;;;;;;6.38;3.30;;;;;;;;;;5094531;28;20047;-79
2021/12/03 10:36:34;;;;;;;8.48;3.50;;;;;;;;;;5071588;28;20033;-79
2021/12/03 10:41:51;;;;;;;5.15;2.80;;;;;;;;;;5059266;28;20036;-79
2021/12/03 11:35:33;;;;;;;9.45;5.63;;;;;;;;;;5073927;28;20039;-77
2021/12/03 13:17:22;;;;;;;11.27;5.90;;;;;;;;;;5058593;28;20036;-77
2021/12/03 13:22:53;;;;;;;9.47;5.40;;;;;;;;;;5063615;28;20024;-77
2021/12/03 14:12:36;;;;;;;7.97;4.60;;;;;;;;;;5076895;28;20337;-78
2021/12/03 14:40:12;;;;;;;9.93;5.30;;;;;;;;;;5087292;28;20029;-77
2021/12/03 14:42:53;;;;;;;10.43;5.65;;;;;;;;;;5081962;28;20020;-77
2021/12/03 14:48:29;;;;;;;8.13;5.15;;;;;;;;;;5078553;28;20474;-78
2021/12/03 14:56:16;;;;;;;11.70;5.53;;;;;;;;;;5088041;28;20031;-78
2021/12/03 15:08:41;;;;;;;9.93;6.22;;;;;;;;;;5089547;28;20113;-77
2021/12/03 15:21:50;;;;;;;18.33;8.73;;;;;;;;;;5088168;28;20119;-78
2021/12/03 15:27:13;;;;;;;10.35;5.40;;;;;;;;;;5073349;28;20027;-78
2021/12/03 15:30:04;;;;;;;12.05;6.32;;;;;;;;;;5074833;28;20024;-78
2021/12/03 16:04:47;;;;;;;7.03;4.10;;;;;;;;;;5072344;28;20042;-77
2021/12/03 16:07:28;;;;;;;7.15;3.95;;;;;;;;;;5077339;28;20114;-78
2021/12/03 16:10:14;;;;;;;9.65;5.00;;;;;;;;;;5071218;28;20066;-77
2021/12/03 16:13:10;;;;;;;10.88;4.30;;;;;;;;;;5085082;28;20015;-77
2021/12/03 16:53:06;;;;;;;9.18;5.55;;;;;;;;;;5086562;28;20039;-78
2021/12/03 16:55:33;;;;;;;10.02;5.30;;;;;;;;;;5085716;28;20012;-79
2021/12/03 16:57:59;;;;;;;8.93;5.03;;;;;;;;;;5087810;28;20043;-78
2021/12/03 17:07:18;;;;;;;9.00;5.15;;;;;;;;;;5089199;28;20064;-78
2021/12/03 18:00:23;;;;;;;17.90;10.55;;;;;;;;;;5057708;28;20040;-78
2021/12/03 18:02:53;;;;;;;12.25;7.22;;;;;;;;;;5067805;28;20020;-78
2021/12/03 18:51:15;;;;;;;13.82;7.80;;;;;;;;;;5080945;28;20098;-78
2021/12/03 18:58:47;;;;;;;16.92;8.38;;;;;;;;;;5073826;28;20044;-78
2021/12/03 19:01:14;;;;;;;11.48;7.25;;;;;;;;;;5076163;28;20032;-78
2021/12/03 19:06:20;;;;;;;16.23;8.27;;;;;;;;;;5093458;28;20038;-78
2021/12/03 19:08:52;;;;;;;13.88;8.52;;;;;;;;;;5094181;28;20457;-78
2021/12/03 19:11:25;;;;;;;15.02;8.65;;;;;;;;;;5084574;28;20097;-77
2021/12/03 19:13:52;;;;;;;12.90;7.80;;;;;;;;;;5074108;28;20020;-78
2021/12/03 19:16:22;;;;;;;13.90;8.68;;;;;;;;;;5082166;28;20092;-77
2021/12/03 19:18:52;;;;;;;16.63;8.70;;;;;;;;;;5074608;28;20547;-77
2021/12/03 19:21:23;;;;;;;16.70;9.40;;;;;;;;;;5077600;28;20028;-77
2021/12/03 19:23:50;;;;;;;14.13;9.52;;;;;;;;;;5090596;28;20024;-77
2021/12/03 19:26:17;;;;;;;14.77;8.60;;;;;;;;;;5074301;28;20558;-79
2021/12/03 19:28:44;;;;;;;14.65;9.32;;;;;;;;;;5076627;28;20024;-78
2021/12/03 19:31:10;;;;;;;16.20;9.85;;;;;;;;;;5074335;28;20039;-78
2021/12/03 19:33:37;;;;;;;17.75;10.27;;;;;;;;;;5091631;28;20027;-77
2021/12/03 19:36:06;;;;;;;19.38;12.07;;;;;;;;;;5088210;28;20103;-78
2021/12/03 19:38:35;;;;;;;25.08;16.13;;;;;;;;;;5094132;28;20405;-78
2021/12/03 19:41:08;;;;;;;25.80;14.85;;;;;;;;;;5085214;28;20017;-78
2021/12/03 19:43:41;;;;;;;24.85;15.63;;;;;;;;;;5081346;28;20385;-78
2021/12/03 19:46:07;;;;;;;22.20;14.65;;;;;;;;;;5084477;28;20040;-77
2021/12/03 19:48:41;;;;;;;26.80;14.93;;;;;;;;;;5079903;28;20447;-78
2021/12/03 19:51:15;;;;;;;24.30;14.25;;;;;;;;;;5082987;28;20037;-78
2021/12/03 19:53:49;;;;;;;21.25;13.60;;;;;;;;;;5079792;28;20048;-78
2021/12/03 19:56:15;;;;;;;21.05;13.00;;;;;;;;;;5089594;28;20036;-78
2021/12/03 19:58:41;;;;;;;22.67;14.18;;;;;;;;;;5084371;28;20117;-77
2021/12/03 20:01:08;;;;;;;19.00;12.88;;;;;;;;;;5079634;28;20457;-78
2021/12/03 20:03:34;;;;;;;24.25;15.40;;;;;;;;;;5083006;28;20032;-78
2021/12/03 20:06:00;;;;;;;25.52;14.95;;;;;;;;;;5079627;28;20031;-78
2021/12/03 20:08:26;;;;;;;26.75;16.60;;;;;;;;;;5080467;28;20024;-77
2021/12/03 20:10:55;;;;;;;26.48;16.02;;;;;;;;;;5085980;28;20485;-78
2021/12/03 20:13:24;;;;;;;25.02;16.20;;;;;;;;;;5078862;28;20024;-78
2021/12/03 20:16:02;;;;;;;24.10;14.48;;;;;;;;;;5082526;28;20490;-78
2021/12/03 20:20:56;;;;;;;28.70;16.42;;;;;;;;;;5099183;28;20122;-78
2021/12/03 20:31:17;;;;;;;32.78;18.75;;;;;;;;;;5074635;28;20048;-79
2021/12/03 20:36:28;;;;;;;31.60;18.63;;;;;;;;;;5091373;28;20036;-79
2021/12/03 20:39:12;;;;;;;30.25;17.42;;;;;;;;;;5100360;28;20047;-79
2021/12/03 21:11:09;;;;;;;22.17;12.73;;;;;;;;;;5073472;28;20034;-81
2021/12/03 21:13:40;;;;;;;18.33;10.93;;;;;;;;;;5076175;28;20027;-79
2021/12/03 21:16:16;;;;;;;17.08;10.77;;;;;;;;;;5073170;28;20028;-79
2021/12/03 21:18:49;;;;;;;18.52;10.98;;;;;;;;;;5073763;28;20025;-79
2021/12/03 21:24:01;;;;;;;18.88;12.20;;;;;;;;;;5075599;28;20044;-79
2021/12/03 21:26:31;;;;;;;24.02;14.52;;;;;;;;;;5092627;28;20123;-79
2021/12/03 21:29:20;;;;;;;24.33;15.25;;;;;;;;;;5080428;28;20035;-79
2021/12/03 21:31:55;;;;;;;26.00;14.05;;;;;;;;;;5072697;28;20091;-79
2021/12/03 21:42:19;;;;;;;22.45;13.15;;;;;;;;;;5093986;28;20035;-79
2021/12/03 21:44:45;;;;;;;21.60;13.35;;;;;;;;;;5076089;28;20162;-78
2021/12/03 21:47:11;;;;;;;22.88;13.10;;;;;;;;;;5080650;28;20458;-78
2021/12/03 21:49:37;;;;;;;17.02;11.82;;;;;;;;;;5092005;28;20405;-78
2021/12/03 21:52:03;;;;;;;18.02;12.35;;;;;;;;;;5085840;28;20376;-79
2021/12/03 21:54:30;;;;;;;19.55;11.85;;;;;;;;;;5088511;28;20559;-78
2021/12/03 21:57:05;;;;;;;20.75;13.15;;;;;;;;;;5089906;28;20084;-79
2021/12/03 21:59:32;;;;;;;19.27;12.20;;;;;;;;;;5075722;28;20497;-79
2021/12/03 22:01:58;;;;;;;18.95;12.05;;;;;;;;;;5075451;28;20048;-79
2021/12/03 22:04:24;;;;;;;20.02;12.35;;;;;;;;;;5089683;28;20021;-79
2021/12/03 22:06:50;;;;;;;19.63;11.90;;;;;;;;;;5096201;28;20379;-79
2021/12/03 22:09:19;;;;;;;19.65;12.60;;;;;;;;;;5088163;28;20054;-79
2021/12/03 22:11:45;;;;;;;26.55;17.55;;;;;;;;;;5096143;28;20039;-79
2021/12/03 22:14:11;;;;;;;25.95;16.63;;;;;;;;;;5082092;28;20498;-78
2021/12/03 22:16:37;;;;;;;24.42;16.48;;;;;;;;;;5076620;28;20405;-80
2021/12/03 22:19:03;;;;;;;35.35;21.52;;;;;;;;;;5078270;28;20138;-79
2021/12/03 22:21:29;;;;;;;30.40;19.55;;;;;;;;;;5076531;28;20044;-78
2021/12/03 22:23:55;;;;;;;22.30;14.32;;;;;;;;;;5088523;28;20046;-79
2021/12/03 22:26:22;;;;;;;18.58;12.93;;;;;;;;;;5098117;28;20016;-79
2021/12/03 22:28:48;;;;;;;22.75;12.80;;;;;;;;;;5097295;28;20016;-78
2021/12/03 22:31:14;;;;;;;21.48;13.27;;;;;;;;;;5079661;28;20115;-79
2021/12/03 22:33:42;;;;;;;19.92;11.65;;;;;;;;;;5087096;28;20092;-79
2021/12/03 22:36:09;;;;;;;18.23;11.02;;;;;;;;;;5076366;28;20066;-79
2021/12/03 22:38:35;;;;;;;18.70;11.82;;;;;;;;;;5089891;28;20461;-79
2021/12/03 22:41:03;;;;;;;19.38;11.82;;;;;;;;;;5083572;28;20024;-78
2021/12/03 22:43:33;;;;;;;20.35;11.98;;;;;;;;;;5081884;28;20466;-78
2021/12/03 22:53:43;;;;;;;19.55;11.75;;;;;;;;;;5082238;28;20039;-78
2021/12/03 22:56:09;;;;;;;20.00;12.65;;;;;;;;;;5083226;28;20318;-79
2021/12/03 22:58:35;;;;;;;18.92;12.75;;;;;;;;;;5077123;28;20118;-79
2021/12/03 23:01:05;;;;;;;21.02;12.75;;;;;;;;;;5078726;28;20074;-78
2021/12/03 23:03:32;;;;;;;19.65;12.38;;;;;;;;;;5077879;28;20028;-78
2021/12/03 23:05:59;;;;;;;18.48;10.98;;;;;;;;;;5086837;28;20288;-79
2021/12/03 23:08:25;;;;;;;21.02;11.80;;;;;;;;;;5096203;28;20032;-79
2021/12/03 23:10:52;;;;;;;17.77;11.40;;;;;;;;;;5093112;28;20024;-79
2021/12/03 23:13:19;;;;;;;16.27;10.43;;;;;;;;;;5095235;28;20081;-78
2021/12/03 23:15:46;;;;;;;18.45;10.82;;;;;;;;;;5080894;28;20456;-78
2021/12/03 23:18:12;;;;;;;15.55;9.98;;;;;;;;;;5074920;28;20062;-78
2021/12/03 23:20:39;;;;;;;17.40;10.13;;;;;;;;;;5087836;28;20030;-78
2021/12/03 23:23:05;;;;;;;19.13;11.52;;;;;;;;;;5093189;28;20020;-78
2021/12/03 23:25:32;;;;;;;15.00;10.15;;;;;;;;;;5094871;28;20043;-78
2021/12/03 23:27:59;;;;;;;18.25;10.88;;;;;;;;;;5093100;28;20089;-78
2021/12/03 23:30:25;;;;;;;15.60;9.50;;;;;;;;;;5080877;28;20048;-78
2021/12/03 23:32:51;;;;;;;16.52;10.95;;;;;;;;;;5093056;28;20393;-78
2021/12/03 23:35:17;;;;;;;17.48;11.20;;;;;;;;;;5077394;28;20040;-78
2021/12/03 23:37:43;;;;;;;17.65;9.80;;;;;;;;;;5072612;28;20024;-78
2021/12/03 23:40:10;;;;;;;17.52;11.43;;;;;;;;;;5082243;28;20165;-78
2021/12/03 23:42:36;;;;;;;16.90;11.18;;;;;;;;;;5082056;28;20028;-78
2021/12/03 23:45:03;;;;;;;17.30;10.18;;;;;;;;;;5078801;28;20104;-78